»·PEaware :: SWA890 KLAS-KLAX

SWA890 :: KLAS-KLAX

FLIGHT INFORMATION

Flight Status: Arrived
Operator:
Southwest Airlines
More flights by this operator :: More flights under this callsign
Pilot: Colin A. (19898)
Aircraft: BOEING 737-600
(B736)
More flights by this aircraft type
Origin: KLAS Harry Reid Intl
United States
Destination: KLAX Los Angeles Intl
United States
More flights between these airports :: More routes between these airports
Route: RADYR2 BLAQQ SHTNR ANJLL4
File this flight plan on PilotEdge
Remarks: RMK / SIMBRIEF
Altitude:
(Current/Filed)
36,000ft
Speed:
(Current/Filed)
448kts
Departed: 26-Oct-22 06:11 PM
Arrived: 26-Oct-22 06:54 PM
Distance/Time
Traveled:
205nm/0:43
Distance/Time
To Go:
Arrived

Flight Plot

Page will automatically refresh every two minutes.

Flight plan parsing failed; only flown route is shown


Map Options




Map Legend


Flown Route
Filed Route
Departure Airport
Arrival Airport
Navaid (VOR, NDB)
Fix

Horizontal Profiles

Position Reports

Time Latitude Longitude Heading Altitude Ground
Speed
26-Oct-22 17:42 36.081895 -115.146542 251 2186ft 0kts
26-Oct-22 17:43 36.081895 -115.146542 251 2186ft 0kts
26-Oct-22 17:44 36.081895 -115.146542 251 2186ft 0kts
26-Oct-22 17:45 36.081895 -115.146542 251 2186ft 0kts
26-Oct-22 17:46 36.081895 -115.146542 251 2186ft 0kts
26-Oct-22 17:47 36.081895 -115.146542 251 2186ft 0kts
26-Oct-22 17:48 36.081895 -115.146542 251 2186ft 0kts
26-Oct-22 17:49 36.081895 -115.146542 251 2186ft 0kts
26-Oct-22 17:50 36.081895 -115.146542 251 2186ft 0kts
26-Oct-22 17:51 36.081895 -115.146542 251 2186ft 0kts
26-Oct-22 17:52 36.081895 -115.146542 251 2186ft 0kts
26-Oct-22 17:53 36.081895 -115.146542 251 2186ft 0kts
26-Oct-22 17:54 36.081895 -115.146542 251 2186ft 0kts
26-Oct-22 17:55 36.081895 -115.146542 251 2186ft 0kts
26-Oct-22 17:56 36.081895 -115.146542 251 2186ft 0kts
26-Oct-22 17:57 36.081895 -115.146542 251 2186ft 0kts
26-Oct-22 17:58 36.081973 -115.146284 242 2187ft 2kts
26-Oct-22 17:59 36.082368 -115.146282 128 2190ft 2kts
26-Oct-22 18:00 36.082368 -115.146282 128 2186ft 0kts
26-Oct-22 18:01 36.082368 -115.146282 128 2186ft 0kts
26-Oct-22 18:02 36.081280 -115.145182 155 2186ft 13kts
26-Oct-22 18:03 36.077568 -115.144046 101 2190ft 14kts
26-Oct-22 18:04 36.077558 -115.138617 90 2187ft 16kts
26-Oct-22 18:05 36.077548 -115.132579 89 2188ft 18kts
26-Oct-22 18:06 36.077562 -115.126168 91 2187ft 19kts
26-Oct-22 18:07 36.077439 -115.121465 124 2187ft 0kts
26-Oct-22 18:08 36.077423 -115.121436 124 2187ft 0kts
26-Oct-22 18:09 36.077423 -115.121436 124 2187ft 0kts
26-Oct-22 18:10 36.076469 -115.137825 271 2273ft 165kts
26-Oct-22 18:11 36.076735 -115.204717 261 5031ft 230kts
26-Oct-22 18:12 36.042959 -115.271667 201 7512ft 258kts
26-Oct-22 18:13 35.968825 -115.301096 191 8601ft 291kts
26-Oct-22 18:14 35.885938 -115.320286 192 11755ft 328kts
26-Oct-22 18:15 35.791986 -115.343137 192 13041ft 350kts
26-Oct-22 18:16 35.696856 -115.366416 193 13059ft 347kts
26-Oct-22 18:17 35.602192 -115.387977 184 13622ft 355kts
26-Oct-22 18:18 35.500681 -115.379984 180 16719ft 370kts
26-Oct-22 18:19 35.401693 -115.399690 212 19704ft 365kts
26-Oct-22 18:20 35.310658 -115.459342 212 22458ft 377kts
26-Oct-22 18:21 35.215848 -115.519875 212 24856ft 390kts
26-Oct-22 18:22 35.119529 -115.583690 224 27038ft 395kts
26-Oct-22 18:23 35.042120 -115.683305 230 27962ft 423kts
26-Oct-22 18:24 34.960933 -115.786975 230 27934ft 421kts
26-Oct-22 18:25 34.880554 -115.889194 230 27924ft 420kts
26-Oct-22 18:26 34.799692 -115.991759 230 27917ft 420kts
26-Oct-22 18:27 34.718678 -116.094637 230 27908ft 420kts
26-Oct-22 18:28 34.639492 -116.195416 230 27908ft 419kts
26-Oct-22 18:29 34.559592 -116.296753 230 27936ft 418kts
26-Oct-22 18:30 34.478953 -116.398719 230 27931ft 418kts
26-Oct-22 18:31 34.404975 -116.503414 248 27939ft 405kts
26-Oct-22 18:32 34.356915 -116.622634 246 26555ft 389kts
26-Oct-22 18:33 34.311646 -116.733353 247 25183ft 358kts
26-Oct-22 18:34 34.268621 -116.840601 247 23213ft 352kts
26-Oct-22 18:35 34.226129 -116.945879 247 21269ft 344kts
26-Oct-22 18:36 34.191970 -117.052462 256 19365ft 337kts
26-Oct-22 18:37 34.163679 -117.158334 254 17568ft 329kts
26-Oct-22 18:38 34.135084 -117.262130 254 15810ft 322kts
26-Oct-22 18:39 34.107194 -117.363357 254 14127ft 314kts
26-Oct-22 18:40 34.082436 -117.461509 256 13978ft 288kts
26-Oct-22 18:41 34.060318 -117.548847 256 12682ft 271kts
26-Oct-22 18:42 34.037853 -117.636782 255 10252ft 277kts
26-Oct-22 18:43 34.018843 -117.723913 266 8738ft 258kts
26-Oct-22 18:44 34.011156 -117.810435 265 7764ft 263kts
26-Oct-22 18:45 34.002722 -117.896801 264 6804ft 255kts
26-Oct-22 18:46 33.994366 -117.981968 264 5849ft 255kts
26-Oct-22 18:47 33.986336 -118.063919 266 4852ft 228kts
26-Oct-22 18:48 33.979552 -118.137723 263 3833ft 220kts
26-Oct-22 18:49 33.971931 -118.210412 263 2863ft 222kts
26-Oct-22 18:50 33.964409 -118.282664 263 2055ft 203kts
26-Oct-22 18:51 33.958675 -118.338107 262 1203ft 132kts
26-Oct-22 18:52 33.954257 -118.381068 262 567ft 142kts
26-Oct-22 18:53 33.950586 -118.416395 260 122ft 34kts
26-Oct-22 18:54 33.947075 -118.422399 162 123ft 16kts
26-Oct-22 18:55 33.947560 -118.415231 84 124ft 27kts
26-Oct-22 18:56 33.948642 -118.405922 83 124ft 31kts
26-Oct-22 18:57 33.948243 -118.400161 147 122ft 1kts
26-Oct-22 18:58 33.947552 -118.400102 194 122ft 8kts
26-Oct-22 18:59 33.947310 -118.400681 263 120ft 0kts
26-Oct-22 19:00 33.947310 -118.400681 263 124ft 0kts

Navigation Log

Ident Type
Flight plan parsing failed, navigation log unavailable